Eko 2 — SY9957 — position and weather

sailwx.info

Track history (hours):
 
Tides and Currents Weather Stations Pressure Air Temp Water Temp Dewpoint Dewpoint Depression Visibility Wind Speed Wind Dir Waves Ship Positions

Eko 2

Last reported at 2016-Feb-03 21:33 UTC. Time now 2016-Feb-07 12:51 UTC.
Position N 37°03' E 025°18'.

Length 89 m; draft 4.3 m.

Type: Ship (hazmat cat A). MMSI: 240827000.

Date/timePositionNaut miles runAvg speedWind from/ knotsBaromVisibWave heightAir tempDewpointWater temp
2016-Feb-03 21:33N 37°03' E 025°18'5 4.8
2016-Feb-03 20:32N 37°06' E 025°22'0 0.0
2016-Feb-03 19:32N 37°06' E 025°22'0 0.0
2016-Feb-03 18:32N 37°06' E 025°22'0 0.0
2016-Feb-03 17:29N 37°06' E 025°22'1 0.8
2016-Feb-03 16:33N 37°06' E 025°22'1 0.7
2016-Feb-03 15:31N 37°06' E 025°22'0 0.0
2016-Feb-03 14:31N 37°06' E 025°22'0 0.0
2016-Feb-03 13:33N 37°06' E 025°22'0 0.0
2016-Feb-03 12:33N 37°06' E 025°22'0 0.0
2016-Feb-03 11:33N 37°06' E 025°22'0 0.2
2016-Feb-03 10:33N 37°06' E 025°22'0 0.2
2016-Feb-03 09:33N 37°06' E 025°22'0 0.0
2016-Feb-03 08:33N 37°06' E 025°22'1 0.6
2016-Feb-03 07:29N 37°06' E 025°22'0 0.1
2016-Feb-03 06:32N 37°06' E 025°22'0 0.1
2016-Feb-03 05:34N 37°06' E 025°22'7 6.7
2016-Feb-03 04:34N 37°11' E 025°16'8 8.4
2016-Feb-03 03:33N 37°13' E 025°06'8 8.4
2016-Feb-03 02:34N 37°14' E 024°55'9 8.5
2016-Feb-03 01:32N 37°14' E 024°44'41 8.0
2016-Feb-02 20:22N 37°31' E 023°57'7 8.4
2016-Feb-02 19:32N 37°35' E 023°50'8 8.4
2016-Feb-02 18:33N 37°41' E 023°42'8 8.4
2016-Feb-02 17:34N 37°48' E 023°38'9 8.8
2016-Feb-02 16:34N 37°57' E 023°36'5 4.5
2016-Feb-02 15:28N 38°02' E 023°36'0 0.0
2016-Feb-02 14:31N 38°02' E 023°36'0 0.0
2016-Feb-02 13:28N 38°02' E 023°36'0 0.0
2016-Feb-02 12:31N 38°02' E 023°36'0 0.0
2016-Feb-02 11:31N 38°02' E 023°36'0 0.0
2016-Feb-02 10:31N 38°02' E 023°36'0 0.0
2016-Feb-02 09:28N 38°02' E 023°36'0 0.0
2016-Feb-02 07:28N 38°02' E 023°36'0 0.0
2016-Feb-02 06:22N 38°02' E 023°36'0 0.2
2016-Feb-02 05:33N 38°02' E 023°36'2 2.3
2016-Feb-02 04:30N 38°02' E 023°32'0 0.0
2016-Feb-02 03:32N 38°02' E 023°32'0 0.0
2016-Feb-02 02:33N 38°02' E 023°32'0 0.0
2016-Feb-02 01:27N 38°02' E 023°32'0 0.0
2016-Feb-02 00:29N 38°02' E 023°32'0 0.0
2016-Feb-01 23:33N 38°02' E 023°32'0 0.0
2016-Feb-01 22:33N 38°02' E 023°32'0 0.0
2016-Feb-01 21:32N 38°02' E 023°32'0 0.0
2016-Feb-01 20:30N 38°02' E 023°32'0 0.0
2016-Feb-01 19:32N 38°02' E 023°32'0 0.0
2016-Feb-01 18:24N 38°02' E 023°32'0 0.0
2016-Feb-01 17:24N 38°02' E 023°32'0 0.0
2016-Feb-01 16:33N 38°02' E 023°32'0 0.0
2016-Feb-01 15:30N 38°02' E 023°32'0 0.0
2016-Feb-01 14:30N 38°02' E 023°32'0 0.0
2016-Feb-01 13:30N 38°02' E 023°32'0 0.0
2016-Feb-01 12:32N 38°02' E 023°32'0 0.0
2016-Feb-01 11:08N 38°02' E 023°32'0 0.0
2016-Feb-01 10:33N 38°02' E 023°32'0 0.0
2016-Feb-01 09:24N 38°02' E 023°32'0 0.0
2016-Feb-01 08:33N 38°02' E 023°32'0 0.0
2016-Feb-01 07:29N 38°02' E 023°32'0 0.0
2016-Feb-01 06:32N 38°02' E 023°32'0 0.0
2016-Feb-01 05:33N 38°02' E 023°32'0 0.0
2016-Feb-01 04:32N 38°02' E 023°32'0 0.0
2016-Feb-01 03:33N 38°02' E 023°32'0 0.0
2016-Feb-01 02:32N 38°02' E 023°32'0 0.0
2016-Feb-01 01:32N 38°02' E 023°32'0 0.0
2016-Feb-01 00:33N 38°02' E 023°32'0 0.0
2016-Jan-31 23:33N 38°02' E 023°32'0 0.0
2016-Jan-31 22:32N 38°02' E 023°32'0 0.0
2016-Jan-31 21:32N 38°02' E 023°32'0 0.0
2016-Jan-31 20:32N 38°02' E 023°32'0 0.0
2016-Jan-31 19:32N 38°02' E 023°32'0 0.0
2016-Jan-31 18:32N 38°02' E 023°32'0 0.0
2016-Jan-31 17:33N 38°02' E 023°32'0 0.0
2016-Jan-31 16:33N 38°02' E 023°32'0 0.0
2016-Jan-31 15:33N 38°02' E 023°32'0 0.0
2016-Jan-31 14:32N 38°02' E 023°32'0 0.0
2016-Jan-31 13:33N 38°02' E 023°32'0 0.0
2016-Jan-31 12:32N 38°02' E 023°32'0 0.0
2016-Jan-31 11:33N 38°02' E 023°32'0 0.0
2016-Jan-31 10:32N 38°02' E 023°32'0 0.0
2016-Jan-31 09:32N 38°02' E 023°32'0 0.0
2016-Jan-31 08:33N 38°02' E 023°32'0 0.0
2016-Jan-31 07:32N 38°02' E 023°32'0 0.0
2016-Jan-31 06:32N 38°02' E 023°32'0 0.0
2016-Jan-31 05:32N 38°02' E 023°32'0 0.0
2016-Jan-31 04:30N 38°02' E 023°32'0 0.0
2016-Jan-31 03:33N 38°02' E 023°32'0 0.0
2016-Jan-31 02:32N 38°02' E 023°32'0 0.0
2016-Jan-31 01:32N 38°02' E 023°32'0 0.0
2016-Jan-31 00:33N 38°02' E 023°32'0 0.0
2016-Jan-30 23:33N 38°02' E 023°32'0 0.0
2016-Jan-30 22:33N 38°02' E 023°32'0 0.0
2016-Jan-30 21:32N 38°02' E 023°32'0 0.0
2016-Jan-30 20:32N 38°02' E 023°32'0 0.0
2016-Jan-30 19:33N 38°02' E 023°32'0 0.0
2016-Jan-30 18:32N 38°02' E 023°32'0 0.0
2016-Jan-30 17:33N 38°02' E 023°32'0 0.0
2016-Jan-30 16:33N 38°02' E 023°32'0 0.0
2016-Jan-30 15:32N 38°02' E 023°32'0 0.0
2016-Jan-30 14:33N 38°02' E 023°32'0 0.0
2016-Jan-30 13:33N 38°02' E 023°32'0 0.0
2016-Jan-30 12:32N 38°02' E 023°32'0 0.0
2016-Jan-30 11:33N 38°02' E 023°32'0 0.2
2016-Jan-30 10:33N 38°02' E 023°32'0 0.0
2016-Jan-30 09:33N 38°02' E 023°32'0 0.0
2016-Jan-30 08:33N 38°02' E 023°32'0 0.0
2016-Jan-30 07:33N 38°02' E 023°32'1 0.9
2016-Jan-30 06:33N 38°01' E 023°33'8 7.5
2016-Jan-30 05:33N 37°55' E 023°37'9 8.9
2016-Jan-30 04:33N 37°47' E 023°42'9 8.8
2016-Jan-30 03:33N 37°39' E 023°48'48 9.7
2016-Jan-29 22:33N 37°32' E 024°49'1010.0
2016-Jan-29 21:33N 37°32' E 025°02'6 6.1
2016-Jan-29 20:33N 37°32' E 025°09'0 0.0
2016-Jan-29 19:33N 37°32' E 025°09'0 0.0
2016-Jan-29 18:30N 37°32' E 025°09'3 2.7
2016-Jan-29 17:33N 37°31' E 025°06'10 9.5
2016-Jan-29 16:33N 37°26' E 024°56'0 0.0
2016-Jan-29 15:30N 37°26' E 024°56'0 0.0
2016-Jan-29 14:33N 37°26' E 024°56'0 0.0
2016-Jan-29 13:33N 37°26' E 024°56'0 0.3
2016-Jan-29 12:33N 37°26' E 024°57'8 8.6
2016-Jan-29 11:33N 37°19' E 025°03'1110.8
2016-Jan-29 10:34N 37°09' E 025°06'4 0.4
2016-Jan-29 01:12N 37°05' E 025°09'0 0.0
2016-Jan-28 23:28N 37°05' E 025°09'0 0.0
2016-Jan-28 20:13N 37°05' E 025°09'1 2.0
2016-Jan-28 19:33N 37°05' E 025°07'1110.7
2016-Jan-28 18:33N 37°15' E 025°13'1010.4
2016-Jan-28 17:33N 37°25' E 025°17'4 3.5
2016-Jan-28 16:33N 37°28' E 025°20'0 0.0
2016-Jan-28 15:33N 37°28' E 025°20'0 0.0
2016-Jan-28 14:33N 37°28' E 025°20'0 0.0
2016-Jan-28 13:30N 37°28' E 025°20'0 0.0
2016-Jan-28 12:33N 37°28' E 025°20'0 0.0
2016-Jan-28 11:33N 37°28' E 025°20'0 0.0
2016-Jan-28 10:33N 37°28' E 025°20'0 0.0
2016-Jan-28 09:33N 37°28' E 025°20'0 0.0
2016-Jan-28 08:33N 37°28' E 025°20'0 0.2
2016-Jan-28 07:34N 37°28' E 025°19'10 9.7
2016-Jan-28 06:34N 37°30' E 025°08'10 9.8
2016-Jan-28 05:34N 37°37' E 024°59'10 0.3
2016-Jan-26 18:06N 37°44' E 024°50'5 9.3
2016-Jan-26 17:33N 37°40' E 024°54'9 9.5
2016-Jan-26 16:33N 37°34' E 025°03'5 5.0
2016-Jan-26 15:31N 37°32' E 025°09'0 0.0
2016-Jan-26 14:31N 37°32' E 025°09'0 0.0
2016-Jan-26 13:31N 37°32' E 025°09'0 0.0
2016-Jan-26 12:32N 37°32' E 025°09'0 0.0
2016-Jan-26 11:31N 37°32' E 025°09'0 0.0
2016-Jan-26 10:31N 37°32' E 025°09'0 0.0
2016-Jan-26 09:33N 37°32' E 025°09'0 0.0
2016-Jan-26 08:33N 37°32' E 025°09'0 0.0
2016-Jan-26 07:33N 37°32' E 025°09'1 0.9
2016-Jan-26 06:33N 37°31' E 025°09'10 9.5
2016-Jan-26 05:33N 37°22' E 025°10'1010.1
2016-Jan-26 04:33N 37°13' E 025°16'9 9.2
2016-Jan-26 03:33N 37°04' E 025°18'41 9.1
2016-Jan-25 23:03N 36°23' E 025°26'0 0.4
2016-Jan-25 22:31N 36°23' E 025°26'0 0.0
2016-Jan-25 21:28N 36°23' E 025°26'0 0.0
2016-Jan-25 20:31N 36°23' E 025°26'0 0.0
2016-Jan-25 19:31N 36°23' E 025°26'0 0.0
2016-Jan-25 18:31N 36°23' E 025°26'0 0.0
2016-Jan-25 17:31N 36°23' E 025°26'0 0.0
2016-Jan-25 16:31N 36°23' E 025°26'2 1.6
2016-Jan-25 15:31N 36°25' E 025°25'0 0.0
2016-Jan-25 14:31N 36°25' E 025°25'0 0.0
2016-Jan-25 13:31N 36°25' E 025°25'1 0.7
2016-Jan-25 12:33N 36°24' E 025°25'1 0.9
2016-Jan-25 11:31N 36°23' E 025°26'0 0.0
2016-Jan-25 10:31N 36°23' E 025°26'0 0.0
2016-Jan-25 09:31N 36°23' E 025°26'0 0.0
2016-Jan-25 08:23N 36°23' E 025°26'0 0.0
2016-Jan-25 07:31N 36°23' E 025°26'0 0.0
2016-Jan-25 06:31N 36°23' E 025°26'0 0.0
2016-Jan-25 05:32N 36°23' E 025°26'0 0.0
2016-Jan-25 04:28N 36°23' E 025°26'0 0.0
2016-Jan-25 03:31N 36°23' E 025°26'0 0.0
2016-Jan-25 02:31N 36°23' E 025°26'0 0.0
2016-Jan-25 01:31N 36°23' E 025°26'0 0.0
2016-Jan-25 00:31N 36°23' E 025°26'0 0.0
2016-Jan-24 23:31N 36°23' E 025°26'0 0.0
2016-Jan-24 22:31N 36°23' E 025°26'  
Track history (hours):
 
Tides and Currents Weather Stations Pressure Air Temp Water Temp Dewpoint Dewpoint Depression Visibility Wind Speed Wind Dir Waves Ship Positions

Eko 2

Last reported at 2016-Feb-03 21:33 UTC. Time now 2016-Feb-07 12:51 UTC.
Position N 37°03' E 025°18'.

Length 89 m; draft 4.3 m.

Type: Ship (hazmat cat A). MMSI: 240827000.

Date/timePositionNaut miles runAvg speedWind from/ knotsBaromVisibWave heightAir tempDewpointWater temp
2016-Feb-03 21:33N 37°03' E 025°18'5 4.8
2016-Feb-03 20:32N 37°06' E 025°22'0 0.0
2016-Feb-03 19:32N 37°06' E 025°22'0 0.0
2016-Feb-03 18:32N 37°06' E 025°22'0 0.0
2016-Feb-03 17:29N 37°06' E 025°22'1 0.8
2016-Feb-03 16:33N 37°06' E 025°22'1 0.7
2016-Feb-03 15:31N 37°06' E 025°22'0 0.0
2016-Feb-03 14:31N 37°06' E 025°22'0 0.0
2016-Feb-03 13:33N 37°06' E 025°22'0 0.0
2016-Feb-03 12:33N 37°06' E 025°22'0 0.0
2016-Feb-03 11:33N 37°06' E 025°22'0 0.2
2016-Feb-03 10:33N 37°06' E 025°22'0 0.2
2016-Feb-03 09:33N 37°06' E 025°22'0 0.0
2016-Feb-03 08:33N 37°06' E 025°22'1 0.6
2016-Feb-03 07:29N 37°06' E 025°22'0 0.1
2016-Feb-03 06:32N 37°06' E 025°22'0 0.1
2016-Feb-03 05:34N 37°06' E 025°22'7 6.7
2016-Feb-03 04:34N 37°11' E 025°16'8 8.4
2016-Feb-03 03:33N 37°13' E 025°06'8 8.4
2016-Feb-03 02:34N 37°14' E 024°55'9 8.5
2016-Feb-03 01:32N 37°14' E 024°44'41 8.0
2016-Feb-02 20:22N 37°31' E 023°57'7 8.4
2016-Feb-02 19:32N 37°35' E 023°50'8 8.4
2016-Feb-02 18:33N 37°41' E 023°42'8 8.4
2016-Feb-02 17:34N 37°48' E 023°38'9 8.8
2016-Feb-02 16:34N 37°57' E 023°36'5 4.5
2016-Feb-02 15:28N 38°02' E 023°36'0 0.0
2016-Feb-02 14:31N 38°02' E 023°36'0 0.0
2016-Feb-02 13:28N 38°02' E 023°36'0 0.0
2016-Feb-02 12:31N 38°02' E 023°36'0 0.0
2016-Feb-02 11:31N 38°02' E 023°36'0 0.0
2016-Feb-02 10:31N 38°02' E 023°36'0 0.0
2016-Feb-02 09:28N 38°02' E 023°36'0 0.0
2016-Feb-02 07:28N 38°02' E 023°36'0 0.0
2016-Feb-02 06:22N 38°02' E 023°36'0 0.2
2016-Feb-02 05:33N 38°02' E 023°36'2 2.3
2016-Feb-02 04:30N 38°02' E 023°32'0 0.0
2016-Feb-02 03:32N 38°02' E 023°32'0 0.0
2016-Feb-02 02:33N 38°02' E 023°32'0 0.0
2016-Feb-02 01:27N 38°02' E 023°32'0 0.0
2016-Feb-02 00:29N 38°02' E 023°32'0 0.0
2016-Feb-01 23:33N 38°02' E 023°32'0 0.0
2016-Feb-01 22:33N 38°02' E 023°32'0 0.0
2016-Feb-01 21:32N 38°02' E 023°32'0 0.0
2016-Feb-01 20:30N 38°02' E 023°32'0 0.0
2016-Feb-01 19:32N 38°02' E 023°32'0 0.0
2016-Feb-01 18:24N 38°02' E 023°32'0 0.0
2016-Feb-01 17:24N 38°02' E 023°32'0 0.0
2016-Feb-01 16:33N 38°02' E 023°32'0 0.0
2016-Feb-01 15:30N 38°02' E 023°32'0 0.0
2016-Feb-01 14:30N 38°02' E 023°32'0 0.0
2016-Feb-01 13:30N 38°02' E 023°32'0 0.0
2016-Feb-01 12:32N 38°02' E 023°32'0 0.0
2016-Feb-01 11:08N 38°02' E 023°32'0 0.0
2016-Feb-01 10:33N 38°02' E 023°32'0 0.0
2016-Feb-01 09:24N 38°02' E 023°32'0 0.0
2016-Feb-01 08:33N 38°02' E 023°32'0 0.0
2016-Feb-01 07:29N 38°02' E 023°32'0 0.0
2016-Feb-01 06:32N 38°02' E 023°32'0 0.0
2016-Feb-01 05:33N 38°02' E 023°32'0 0.0
2016-Feb-01 04:32N 38°02' E 023°32'0 0.0
2016-Feb-01 03:33N 38°02' E 023°32'0 0.0
2016-Feb-01 02:32N 38°02' E 023°32'0 0.0
2016-Feb-01 01:32N 38°02' E 023°32'0 0.0
2016-Feb-01 00:33N 38°02' E 023°32'0 0.0
2016-Jan-31 23:33N 38°02' E 023°32'0 0.0
2016-Jan-31 22:32N 38°02' E 023°32'0 0.0
2016-Jan-31 21:32N 38°02' E 023°32'0 0.0
2016-Jan-31 20:32N 38°02' E 023°32'0 0.0
2016-Jan-31 19:32N 38°02' E 023°32'0 0.0
2016-Jan-31 18:32N 38°02' E 023°32'0 0.0
2016-Jan-31 17:33N 38°02' E 023°32'0 0.0
2016-Jan-31 16:33N 38°02' E 023°32'0 0.0
2016-Jan-31 15:33N 38°02' E 023°32'0 0.0
2016-Jan-31 14:32N 38°02' E 023°32'0 0.0
2016-Jan-31 13:33N 38°02' E 023°32'0 0.0
2016-Jan-31 12:32N 38°02' E 023°32'0 0.0
2016-Jan-31 11:33N 38°02' E 023°32'0 0.0
2016-Jan-31 10:32N 38°02' E 023°32'0 0.0
2016-Jan-31 09:32N 38°02' E 023°32'0 0.0
2016-Jan-31 08:33N 38°02' E 023°32'0 0.0
2016-Jan-31 07:32N 38°02' E 023°32'0 0.0
2016-Jan-31 06:32N 38°02' E 023°32'0 0.0
2016-Jan-31 05:32N 38°02' E 023°32'0 0.0
2016-Jan-31 04:30N 38°02' E 023°32'0 0.0
2016-Jan-31 03:33N 38°02' E 023°32'0 0.0
2016-Jan-31 02:32N 38°02' E 023°32'0 0.0
2016-Jan-31 01:32N 38°02' E 023°32'0 0.0
2016-Jan-31 00:33N 38°02' E 023°32'0 0.0
2016-Jan-30 23:33N 38°02' E 023°32'0 0.0
2016-Jan-30 22:33N 38°02' E 023°32'0 0.0
2016-Jan-30 21:32N 38°02' E 023°32'0 0.0
2016-Jan-30 20:32N 38°02' E 023°32'0 0.0
2016-Jan-30 19:33N 38°02' E 023°32'0 0.0
2016-Jan-30 18:32N 38°02' E 023°32'0 0.0
2016-Jan-30 17:33N 38°02' E 023°32'0 0.0
2016-Jan-30 16:33N 38°02' E 023°32'0 0.0
2016-Jan-30 15:32N 38°02' E 023°32'0 0.0
2016-Jan-30 14:33N 38°02' E 023°32'0 0.0
2016-Jan-30 13:33N 38°02' E 023°32'0 0.0
2016-Jan-30 12:32N 38°02' E 023°32'0 0.0
2016-Jan-30 11:33N 38°02' E 023°32'0 0.2
2016-Jan-30 10:33N 38°02' E 023°32'0 0.0
2016-Jan-30 09:33N 38°02' E 023°32'0 0.0
2016-Jan-30 08:33N 38°02' E 023°32'0 0.0
2016-Jan-30 07:33N 38°02' E 023°32'1 0.9
2016-Jan-30 06:33N 38°01' E 023°33'8 7.5
2016-Jan-30 05:33N 37°55' E 023°37'9 8.9
2016-Jan-30 04:33N 37°47' E 023°42'9 8.8
2016-Jan-30 03:33N 37°39' E 023°48'48 9.7
2016-Jan-29 22:33N 37°32' E 024°49'1010.0
2016-Jan-29 21:33N 37°32' E 025°02'6 6.1
2016-Jan-29 20:33N 37°32' E 025°09'0 0.0
2016-Jan-29 19:33N 37°32' E 025°09'0 0.0
2016-Jan-29 18:30N 37°32' E 025°09'3 2.7
2016-Jan-29 17:33N 37°31' E 025°06'10 9.5
2016-Jan-29 16:33N 37°26' E 024°56'0 0.0
2016-Jan-29 15:30N 37°26' E 024°56'0 0.0
2016-Jan-29 14:33N 37°26' E 024°56'0 0.0
2016-Jan-29 13:33N 37°26' E 024°56'0 0.3
2016-Jan-29 12:33N 37°26' E 024°57'8 8.6
2016-Jan-29 11:33N 37°19' E 025°03'1110.8
2016-Jan-29 10:34N 37°09' E 025°06'4 0.4
2016-Jan-29 01:12N 37°05' E 025°09'0 0.0
2016-Jan-28 23:28N 37°05' E 025°09'0 0.0
2016-Jan-28 20:13N 37°05' E 025°09'1 2.0
2016-Jan-28 19:33N 37°05' E 025°07'1110.7
2016-Jan-28 18:33N 37°15' E 025°13'1010.4
2016-Jan-28 17:33N 37°25' E 025°17'4 3.5
2016-Jan-28 16:33N 37°28' E 025°20'0 0.0
2016-Jan-28 15:33N 37°28' E 025°20'0 0.0
2016-Jan-28 14:33N 37°28' E 025°20'0 0.0
2016-Jan-28 13:30N 37°28' E 025°20'0 0.0
2016-Jan-28 12:33N 37°28' E 025°20'0 0.0
2016-Jan-28 11:33N 37°28' E 025°20'0 0.0
2016-Jan-28 10:33N 37°28' E 025°20'0 0.0
2016-Jan-28 09:33N 37°28' E 025°20'0 0.0
2016-Jan-28 08:33N 37°28' E 025°20'0 0.2
2016-Jan-28 07:34N 37°28' E 025°19'10 9.7
2016-Jan-28 06:34N 37°30' E 025°08'10 9.8
2016-Jan-28 05:34N 37°37' E 024°59'10 0.3
2016-Jan-26 18:06N 37°44' E 024°50'5 9.3
2016-Jan-26 17:33N 37°40' E 024°54'9 9.5
2016-Jan-26 16:33N 37°34' E 025°03'5 5.0
2016-Jan-26 15:31N 37°32' E 025°09'0 0.0
2016-Jan-26 14:31N 37°32' E 025°09'0 0.0
2016-Jan-26 13:31N 37°32' E 025°09'0 0.0
2016-Jan-26 12:32N 37°32' E 025°09'0 0.0
2016-Jan-26 11:31N 37°32' E 025°09'0 0.0
2016-Jan-26 10:31N 37°32' E 025°09'0 0.0
2016-Jan-26 09:33N 37°32' E 025°09'0 0.0
2016-Jan-26 08:33N 37°32' E 025°09'0 0.0
2016-Jan-26 07:33N 37°32' E 025°09'1 0.9
2016-Jan-26 06:33N 37°31' E 025°09'10 9.5
2016-Jan-26 05:33N 37°22' E 025°10'1010.1
2016-Jan-26 04:33N 37°13' E 025°16'9 9.2
2016-Jan-26 03:33N 37°04' E 025°18'41 9.1
2016-Jan-25 23:03N 36°23' E 025°26'0 0.4
2016-Jan-25 22:31N 36°23' E 025°26'0 0.0
2016-Jan-25 21:28N 36°23' E 025°26'0 0.0
2016-Jan-25 20:31N 36°23' E 025°26'0 0.0
2016-Jan-25 19:31N 36°23' E 025°26'0 0.0
2016-Jan-25 18:31N 36°23' E 025°26'0 0.0
2016-Jan-25 17:31N 36°23' E 025°26'0 0.0
2016-Jan-25 16:31N 36°23' E 025°26'2 1.6
2016-Jan-25 15:31N 36°25' E 025°25'0 0.0
2016-Jan-25 14:31N 36°25' E 025°25'0 0.0
2016-Jan-25 13:31N 36°25' E 025°25'1 0.7
2016-Jan-25 12:33N 36°24' E 025°25'1 0.9
2016-Jan-25 11:31N 36°23' E 025°26'0 0.0
2016-Jan-25 10:31N 36°23' E 025°26'0 0.0
2016-Jan-25 09:31N 36°23' E 025°26'0 0.0
2016-Jan-25 08:23N 36°23' E 025°26'0 0.0
2016-Jan-25 07:31N 36°23' E 025°26'0 0.0
2016-Jan-25 06:31N 36°23' E 025°26'0 0.0
2016-Jan-25 05:32N 36°23' E 025°26'0 0.0
2016-Jan-25 04:28N 36°23' E 025°26'0 0.0
2016-Jan-25 03:31N 36°23' E 025°26'0 0.0
2016-Jan-25 02:31N 36°23' E 025°26'0 0.0
2016-Jan-25 01:31N 36°23' E 025°26'0 0.0
2016-Jan-25 00:31N 36°23' E 025°26'0 0.0
2016-Jan-24 23:31N 36°23' E 025°26'0 0.0
2016-Jan-24 22:31N 36°23' E 025°26'  

Dump ship's entire track history